Time;durP1;ratioP1;P1;durP2;ratioP2;P2;SDS_P1;SDS_P2;PMS_P1;PMS_P2;Temp;Humidity;BMP_temperature;BMP_pressure;BME280_temperature;BME280_humidity;BME280_pressure;Samples;Min_cycle;Max_cycle;Signal;HPM_P1;HPM_P2
2023/11/15 00:01:55;;;;;;;24.17;1.70;;;9.50;99.90;;;;;;5103730;28;20217;-86
2023/11/15 00:04:23;;;;;;;0.50;0.40;;;9.50;99.90;;;;;;5102290;28;20564;-86
2023/11/15 00:06:50;;;;;;;1.43;1.33;;;9.50;99.90;;;;;;5103837;28;20439;-86
2023/11/15 00:09:16;;;;;;;0.50;0.40;;;9.50;99.90;;;;;;5102829;28;20439;-86
2023/11/15 00:11:43;;;;;;;0.40;0.30;;;9.50;99.90;;;;;;5103407;28;20252;-86
2023/11/15 00:14:10;;;;;;;0.40;0.40;;;9.50;99.90;;;;;;5102697;28;21117;-87
2023/11/15 00:16:39;;;;;;;0.77;0.77;;;9.60;99.90;;;;;;5103400;28;20455;-86
2023/11/15 00:19:07;;;;;;;0.40;0.30;;;9.50;99.90;;;;;;5103866;28;20234;-86
2023/11/15 00:21:35;;;;;;;0.40;0.30;;;9.50;99.90;;;;;;5103896;28;20220;-86
2023/11/15 00:24:03;;;;;;;0.40;0.38;;;9.50;99.90;;;;;;5103622;28;20526;-85
2023/11/15 00:26:30;;;;;;;0.40;0.40;;;9.50;99.90;;;;;;5103643;28;20202;-86
2023/11/15 00:28:57;;;;;;;0.40;0.30;;;9.50;99.90;;;;;;5103782;28;20202;-87
2023/11/15 00:31:24;;;;;;;4.10;1.47;;;9.50;99.90;;;;;;5102826;28;20460;-85
2023/11/15 00:33:51;;;;;;;0.40;0.40;;;9.50;99.90;;;;;;5102295;28;20435;-85
2023/11/15 00:36:19;;;;;;;0.55;0.55;;;9.50;99.90;;;;;;5104006;28;20312;-86
2023/11/15 00:38:48;;;;;;;0.50;0.50;;;9.50;99.90;;;;;;5102483;28;20214;-86
2023/11/15 00:41:16;;;;;;;0.50;0.40;;;9.50;99.90;;;;;;5094401;28;20279;-85
2023/11/15 00:43:44;;;;;;;0.40;0.30;;;9.50;99.90;;;;;;5103652;28;20265;-86
2023/11/15 00:46:13;;;;;;;0.47;0.45;;;9.50;99.90;;;;;;5102240;28;23288;-86
2023/11/15 00:48:39;;;;;;;0.40;0.40;;;9.50;99.90;;;;;;5103794;28;20194;-86
2023/11/15 00:51:07;;;;;;;0.40;0.40;;;9.50;99.90;;;;;;5106123;28;20229;-86
2023/11/15 00:53:34;;;;;;;0.40;0.30;;;9.50;99.90;;;;;;5106353;28;20224;-87
2023/11/15 00:56:02;;;;;;;0.50;0.50;;;9.50;99.90;;;;;;5107259;28;20204;-86
2023/11/15 00:58:30;;;;;;;0.40;0.35;;;9.50;99.90;;;;;;5098592;28;20574;-86
2023/11/15 01:00:59;;;;;;;1.20;1.20;;;9.50;99.90;;;;;;5106554;28;20221;-86
2023/11/15 01:03:26;;;;;;;1.08;0.98;;;9.60;99.90;;;;;;5106537;28;20201;-87
2023/11/15 01:05:55;;;;;;;0.40;0.30;;;9.60;99.90;;;;;;5105819;28;20193;-87
2023/11/15 01:08:23;;;;;;;0.40;0.35;;;9.60;99.90;;;;;;5106796;28;20186;-87
2023/11/15 01:10:50;;;;;;;0.88;0.88;;;9.60;99.90;;;;;;5106638;28;20213;-87
2023/11/15 01:13:18;;;;;;;0.40;0.40;;;9.60;99.90;;;;;;5105894;28;20233;-86
2023/11/15 01:15:45;;;;;;;0.40;0.40;;;9.70;99.90;;;;;;5105530;28;20205;-86
2023/11/15 01:18:12;;;;;;;1.08;1.08;;;9.60;99.90;;;;;;5106212;28;20276;-85
2023/11/15 01:20:40;;;;;;;0.40;0.30;;;9.70;99.90;;;;;;5108783;28;20222;-86
2023/11/15 01:23:07;;;;;;;0.40;0.40;;;9.70;99.90;;;;;;5109478;28;20451;-85
2023/11/15 01:25:33;;;;;;;0.40;0.30;;;9.70;99.90;;;;;;5109305;28;20198;-86
2023/11/15 01:28:00;;;;;;;0.98;0.88;;;9.70;99.90;;;;;;5109604;28;20237;-86
2023/11/15 01:30:29;;;;;;;0.90;0.90;;;9.70;99.90;;;;;;5108427;28;20190;-86
2023/11/15 01:32:56;;;;;;;0.50;0.50;;;9.80;99.90;;;;;;5108182;28;20228;-85
2023/11/15 01:35:23;;;;;;;11.00;1.85;;;9.80;99.90;;;;;;5107443;28;20194;-86
2023/11/15 01:37:51;;;;;;;0.50;0.40;;;9.80;99.90;;;;;;5105906;28;20213;-87
2023/11/15 01:40:19;;;;;;;0.50;0.40;;;9.90;99.90;;;;;;5105196;28;20228;-87
2023/11/15 01:42:46;;;;;;;1.40;1.05;;;9.90;99.90;;;;;;5103847;28;20194;-85
2023/11/15 01:45:13;;;;;;;2.40;2.20;;;9.90;99.90;;;;;;5104774;28;20198;-87
2023/11/15 01:47:42;;;;;;;0.70;0.50;;;9.90;99.90;;;;;;5105788;28;20446;-85
2023/11/15 01:50:13;;;;;;;1.00;0.90;;;10.00;99.90;;;;;;5104535;28;20197;-86
2023/11/15 01:52:41;;;;;;;19.80;1.83;;;10.00;99.90;;;;;;5105624;28;20439;-85
2023/11/15 01:55:13;;;;;;;5.93;2.60;;;10.00;99.90;;;;;;5103571;28;20292;-86
2023/11/15 01:57:40;;;;;;;2.05;1.02;;;10.00;99.90;;;;;;5106005;28;20506;-86
2023/11/15 02:00:10;;;;;;;0.40;0.40;;;10.00;99.90;;;;;;5109373;28;20198;-87
2023/11/15 02:02:38;;;;;;;0.57;0.47;;;10.00;99.90;;;;;;5112773;28;20253;-85
2023/11/15 02:05:08;;;;;;;3.67;1.10;;;10.00;99.90;;;;;;5110329;28;20504;-85
2023/11/15 02:07:35;;;;;;;0.50;0.50;;;10.00;99.90;;;;;;5109068;28;20440;-84
2023/11/15 02:10:04;;;;;;;1.30;0.63;;;10.10;99.90;;;;;;5108678;28;20201;-85
2023/11/15 02:12:30;;;;;;;1.13;1.13;;;10.00;99.90;;;;;;5111086;28;20225;-86
2023/11/15 02:14:58;;;;;;;0.80;0.80;;;10.10;99.90;;;;;;5110123;28;20307;-85
2023/11/15 02:17:25;;;;;;;1.97;1.87;;;10.10;99.90;;;;;;5098714;28;20505;-86
2023/11/15 02:19:52;;;;;;;5.03;3.07;;;10.10;99.90;;;;;;5103595;28;20436;-85
2023/11/15 02:22:20;;;;;;;3.87;3.57;;;10.10;99.90;;;;;;5103388;28;20527;-86
2023/11/15 02:24:48;;;;;;;0.77;0.77;;;10.10;99.90;;;;;;5104686;28;20539;-86
2023/11/15 02:27:16;;;;;;;1.20;1.15;;;10.00;99.90;;;;;;5103275;28;20535;-86
2023/11/15 02:29:42;;;;;;;5.20;3.83;;;10.00;99.90;;;;;;5103258;28;20204;-85
2023/11/15 02:32:09;;;;;;;0.68;0.68;;;10.00;99.90;;;;;;5107230;28;20299;-85
2023/11/15 02:34:36;;;;;;;2.05;1.38;;;10.00;99.90;;;;;;5107927;28;20265;-85
2023/11/15 02:37:03;;;;;;;1.08;0.98;;;10.00;99.90;;;;;;5108590;28;20228;-85
2023/11/15 02:39:30;;;;;;;18.30;2.63;;;10.00;99.90;;;;;;5109028;28;20289;-84
2023/11/15 02:41:58;;;;;;;1.10;1.10;;;10.00;99.90;;;;;;5109031;28;20289;-86
2023/11/15 02:44:25;;;;;;;3.90;3.05;;;10.00;99.90;;;;;;5108943;28;20442;-85
2023/11/15 02:46:52;;;;;;;0.40;0.40;;;10.00;99.90;;;;;;5108229;28;20186;-86
2023/11/15 02:49:18;;;;;;;4.95;2.38;;;10.00;99.90;;;;;;5106064;28;20230;-85
2023/11/15 02:51:46;;;;;;;4.10;3.35;;;10.00;99.90;;;;;;5106053;28;20226;-84
2023/11/15 02:54:14;;;;;;;1.23;1.23;;;10.00;99.90;;;;;;5103995;28;20202;-85
2023/11/15 02:56:41;;;;;;;0.82;0.75;;;10.00;99.90;;;;;;5086854;28;20477;-85
2023/11/15 02:59:09;;;;;;;1.85;1.77;;;10.00;99.90;;;;;;5090053;28;20594;-84
2023/11/15 03:01:36;;;;;;;1.37;1.27;;;10.00;99.90;;;;;;5093322;28;20214;-83
2023/11/15 03:04:03;;;;;;;1.53;1.43;;;10.10;99.90;;;;;;5093084;28;20439;-85
2023/11/15 03:06:30;;;;;;;4.67;4.20;;;10.10;99.90;;;;;;5085174;28;20850;-84
2023/11/15 03:08:57;;;;;;;7.07;3.87;;;10.10;99.90;;;;;;5092867;28;20965;-86
2023/11/15 03:11:24;;;;;;;3.00;1.53;;;10.10;99.90;;;;;;5092431;28;21628;-85
2023/11/15 03:13:51;;;;;;;0.73;0.60;;;10.10;99.90;;;;;;5093602;28;20489;-85
2023/11/15 03:16:19;;;;;;;1.38;0.93;;;10.10;99.90;;;;;;5093601;28;20229;-85
2023/11/15 03:18:46;;;;;;;10.77;3.80;;;10.10;99.90;;;;;;5094297;28;20300;-85
2023/11/15 03:21:13;;;;;;;2.53;2.33;;;10.10;99.90;;;;;;5092717;28;20495;-85
2023/11/15 03:23:40;;;;;;;2.08;1.55;;;10.10;99.90;;;;;;5093393;28;20216;-85
2023/11/15 03:26:06;;;;;;;0.40;0.40;;;10.10;99.90;;;;;;5092999;28;20194;-84
2023/11/15 03:28:33;;;;;;;4.53;3.05;;;10.10;99.90;;;;;;5093162;28;20243;-84
2023/11/15 03:31:01;;;;;;;3.95;1.65;;;10.10;99.90;;;;;;5093655;28;20248;-85
2023/11/15 03:33:29;;;;;;;0.50;0.50;;;10.10;99.90;;;;;;5093966;28;20601;-84
2023/11/15 03:35:56;;;;;;;1.07;1.00;;;10.10;99.90;;;;;;5094854;28;20515;-85
2023/11/15 03:38:23;;;;;;;0.95;0.95;;;10.10;99.90;;;;;;5093212;28;20475;-83
2023/11/15 03:40:50;;;;;;;1.58;1.27;;;10.10;99.90;;;;;;5093767;28;20213;-85
2023/11/15 03:43:17;;;;;;;0.80;0.65;;;10.10;99.90;;;;;;5092482;28;20225;-84
2023/11/15 03:45:43;;;;;;;2.88;2.25;;;10.10;99.90;;;;;;5094987;28;20193;-84
2023/11/15 03:48:11;;;;;;;2.67;2.05;;;10.10;99.90;;;;;;5093690;28;20571;-85
2023/11/15 03:50:39;;;;;;;1.95;1.52;;;10.10;99.90;;;;;;5093493;28;20639;-85
2023/11/15 03:53:05;;;;;;;2.15;2.05;;;10.10;99.90;;;;;;5093862;28;20289;-85
2023/11/15 03:55:32;;;;;;;0.60;0.60;;;10.10;99.90;;;;;;5092787;28;20215;-84
2023/11/15 03:57:59;;;;;;;0.40;0.40;;;10.10;99.90;;;;;;5094015;28;20446;-83
2023/11/15 04:00:26;;;;;;;5.78;2.22;;;10.10;99.90;;;;;;5092244;28;20201;-85
2023/11/15 04:02:52;;;;;;;4.35;3.95;;;10.10;99.90;;;;;;5092315;28;20190;-84
2023/11/15 04:05:19;;;;;;;2.05;1.58;;;10.10;99.90;;;;;;5093075;28;20263;-84
2023/11/15 04:07:47;;;;;;;0.93;0.93;;;10.10;99.90;;;;;;5093629;28;20194;-84
2023/11/15 04:10:14;;;;;;;7.95;0.80;;;10.10;99.90;;;;;;5092420;28;20197;-81
2023/11/15 04:12:42;;;;;;;1.63;1.10;;;10.10;99.90;;;;;;5092301;28;20224;-83
2023/11/15 04:15:10;;;;;;;2.45;2.15;;;10.20;99.90;;;;;;5093231;28;20204;-83
2023/11/15 04:17:36;;;;;;;2.53;0.93;;;10.20;99.90;;;;;;5092649;28;20193;-84
2023/11/15 04:20:05;;;;;;;2.40;2.22;;;10.20;99.90;;;;;;5093225;28;20202;-82
2023/11/15 04:22:32;;;;;;;3.08;2.45;;;10.20;99.90;;;;;;5092294;28;20213;-83
2023/11/15 04:25:00;;;;;;;0.90;0.90;;;10.10;99.90;;;;;;5095699;28;20711;-81
2023/11/15 04:27:28;;;;;;;4.40;2.05;;;10.10;99.90;;;;;;5097443;28;20471;-84
2023/11/15 04:29:57;;;;;;;2.05;1.85;;;10.10;99.90;;;;;;5096553;28;20198;-84
2023/11/15 04:32:23;;;;;;;4.00;1.57;;;10.10;99.90;;;;;;5095191;28;20218;-83
2023/11/15 04:34:50;;;;;;;1.53;1.43;;;10.20;99.90;;;;;;5096291;28;20919;-82
2023/11/15 04:37:18;;;;;;;1.37;1.27;;;10.20;99.90;;;;;;5095787;28;20501;-83
2023/11/15 04:39:46;;;;;;;9.93;2.40;;;10.20;99.90;;;;;;5095715;28;21137;-83
2023/11/15 04:42:14;;;;;;;2.88;1.40;;;10.20;99.90;;;;;;5095465;28;20467;-82
2023/11/15 04:44:41;;;;;;;2.38;2.25;;;10.20;99.90;;;;;;5095502;28;20189;-81
2023/11/15 04:47:08;;;;;;;3.38;2.08;;;10.20;99.90;;;;;;5097196;28;20642;-84
2023/11/15 04:49:37;;;;;;;1.27;1.17;;;10.20;99.90;;;;;;5096694;28;20672;-83
2023/11/15 04:52:03;;;;;;;0.50;0.50;;;10.20;99.90;;;;;;5095257;28;20471;-81
2023/11/15 04:54:30;;;;;;;1.37;1.30;;;10.20;99.90;;;;;;5094816;28;20440;-82
2023/11/15 04:56:57;;;;;;;2.00;0.70;;;10.20;99.90;;;;;;5096208;28;20444;-83
2023/11/15 04:59:25;;;;;;;3.50;0.97;;;10.20;99.90;;;;;;5095702;28;20467;-83
2023/11/15 05:01:52;;;;;;;0.83;0.83;;;10.20;99.90;;;;;;5097998;28;20962;-82
2023/11/15 05:04:19;;;;;;;1.90;1.80;;;10.20;99.90;;;;;;5095480;28;20442;-83
2023/11/15 05:06:47;;;;;;;2.15;1.95;;;10.20;99.90;;;;;;5097059;28;20198;-83
2023/11/15 05:09:14;;;;;;;1.90;1.40;;;10.20;99.90;;;;;;5096341;28;20302;-84
2023/11/15 05:11:40;;;;;;;4.23;2.30;;;10.20;99.90;;;;;;5098232;28;20455;-83
2023/11/15 05:14:07;;;;;;;0.87;0.80;;;10.10;99.90;;;;;;5097773;28;20439;-83
2023/11/15 05:16:35;;;;;;;1.87;1.80;;;10.10;99.90;;;;;;5097844;28;20436;-82
2023/11/15 05:19:02;;;;;;;0.50;0.50;;;10.10;99.90;;;;;;5099596;28;20479;-82
2023/11/15 05:21:29;;;;;;;0.50;0.50;;;10.10;99.90;;;;;;5098832;28;20634;-82
2023/11/15 05:23:56;;;;;;;1.33;1.23;;;10.10;99.90;;;;;;5097833;28;20825;-84
2023/11/15 05:26:23;;;;;;;9.30;3.43;;;10.10;99.90;;;;;;5098372;28;20440;-83
2023/11/15 05:28:50;;;;;;;0.52;0.52;;;10.10;99.90;;;;;;5097586;28;21078;-83
2023/11/15 05:31:17;;;;;;;2.70;1.70;;;10.10;99.90;;;;;;5096732;28;20724;-84
2023/11/15 05:33:46;;;;;;;0.60;0.60;;;10.10;99.90;;;;;;5097754;28;20435;-81
2023/11/15 05:36:12;;;;;;;3.30;1.55;;;10.10;99.90;;;;;;5097965;28;20452;-83
2023/11/15 05:38:39;;;;;;;1.80;1.70;;;10.10;99.90;;;;;;5096940;28;20214;-84
2023/11/15 05:41:06;;;;;;;0.63;0.63;;;10.10;99.90;;;;;;5096317;28;20459;-83
2023/11/15 05:43:33;;;;;;;2.97;1.87;;;10.10;99.90;;;;;;5096077;28;20194;-83
2023/11/15 05:45:59;;;;;;;30.00;4.60;;;10.10;99.90;;;;;;5095317;28;20807;-85
2023/11/15 05:48:26;;;;;;;1.53;1.43;;;10.10;99.90;;;;;;5088068;28;20810;-83
2023/11/15 05:50:54;;;;;;;0.45;0.43;;;10.10;99.90;;;;;;5092735;28;20545;-85
2023/11/15 05:53:21;;;;;;;2.87;2.10;;;10.10;99.90;;;;;;5100114;28;20201;-85
2023/11/15 05:55:48;;;;;;;4.73;1.80;;;10.10;99.90;;;;;;5099622;28;20448;-83
2023/11/15 05:58:15;;;;;;;3.13;1.60;;;10.10;99.90;;;;;;5101584;28;20450;-86
2023/11/15 06:00:42;;;;;;;15.73;2.60;;;10.10;99.90;;;;;;5120280;22;20498;-81
2023/11/15 06:03:09;;;;;;;0.50;0.50;;;10.10;99.90;;;;;;5103232;28;20447;-81
2023/11/15 06:05:35;;;;;;;6.93;3.90;;;10.00;99.90;;;;;;5113657;28;20947;-80
2023/11/15 06:08:04;;;;;;;7.00;2.40;;;10.10;99.90;;;;;;5115728;28;20215;-80
2023/11/15 06:10:31;;;;;;;7.53;1.00;;;10.10;99.90;;;;;;5115146;28;20441;-80
2023/11/15 06:12:57;;;;;;;28.80;1.98;;;10.00;99.90;;;;;;5115347;28;20445;-81
2023/11/15 06:15:25;;;;;;;4.20;0.88;;;10.00;99.90;;;;;;5115636;28;20568;-81
2023/11/15 06:17:52;;;;;;;46.20;7.93;;;10.00;99.90;;;;;;5115090;28;20307;-81
2023/11/15 06:20:19;;;;;;;1.70;0.50;;;10.00;99.90;;;;;;5115154;28;20474;-80
2023/11/15 06:22:46;;;;;;;1.52;1.42;;;10.00;99.90;;;;;;5115741;28;20554;-80
2023/11/15 06:25:18;;;;;;;3.22;3.00;;;10.00;99.90;;;;;;5115692;28;20204;-81
2023/11/15 06:27:46;;;;;;;4.53;2.77;;;10.00;99.90;;;;;;5115539;28;20197;-81
2023/11/15 06:30:13;;;;;;;1.03;0.80;;;10.00;99.90;;;;;;5114955;28;20435;-80
2023/11/15 06:32:40;;;;;;;0.70;0.70;;;10.00;99.90;;;;;;5114817;28;20468;-81
2023/11/15 06:35:08;;;;;;;0.50;0.40;;;10.00;99.90;;;;;;5115342;28;20439;-81
2023/11/15 06:37:35;;;;;;;0.80;0.70;;;10.00;99.90;;;;;;5115554;28;20567;-81
2023/11/15 06:40:08;;;;;;;0.80;0.80;;;9.90;99.90;;;;;;5115014;28;21007;-79
2023/11/15 06:42:36;;;;;;;2.50;1.52;;;9.90;99.90;;;;;;5114435;28;20316;-80
2023/11/15 06:45:04;;;;;;;0.40;0.40;;;9.90;99.90;;;;;;5114651;28;20196;-78
2023/11/15 06:47:30;;;;;;;11.13;2.00;;;9.90;99.90;;;;;;5113661;28;20511;-79
2023/11/15 06:49:57;;;;;;;0.50;0.40;;;9.90;99.90;;;;;;5114442;28;20782;-80
2023/11/15 06:52:25;;;;;;;1.55;1.45;;;9.90;99.90;;;;;;5114467;28;20463;-80
2023/11/15 06:54:52;;;;;;;0.50;0.40;;;10.00;99.90;;;;;;5106598;28;20623;-80
2023/11/15 06:57:19;;;;;;;1.00;1.00;;;10.00;99.90;;;;;;5114777;28;20668;-80
2023/11/15 06:59:47;;;;;;;0.70;0.70;;;10.00;99.90;;;;;;5114644;28;20832;-80
2023/11/15 07:02:15;;;;;;;0.50;0.40;;;10.00;99.90;;;;;;5114721;28;20554;-80
2023/11/15 07:04:42;;;;;;;0.50;0.50;;;10.00;99.90;;;;;;5113723;28;20493;-80
2023/11/15 07:07:09;;;;;;;0.50;0.40;;;10.00;99.90;;;;;;5115054;28;20481;-81
2023/11/15 07:09:36;;;;;;;1.13;1.13;;;10.00;99.90;;;;;;5114353;28;20201;-80
2023/11/15 07:12:04;;;;;;;1.00;0.80;;;10.00;99.90;;;;;;5114716;28;20458;-81
2023/11/15 07:14:34;;;;;;;1.60;1.10;;;10.00;99.90;;;;;;5114392;28;20205;-79
2023/11/15 07:17:02;;;;;;;0.60;0.50;;;9.90;99.90;;;;;;5115331;28;20674;-79
2023/11/15 07:19:28;;;;;;;3.30;1.15;;;9.90;99.90;;;;;;5115263;28;20703;-77
2023/11/15 07:21:56;;;;;;;2.38;2.17;;;9.90;99.90;;;;;;5115616;28;20304;-80
2023/11/15 07:24:23;;;;;;;1.05;0.90;;;9.90;99.90;;;;;;5115719;28;20235;-79
2023/11/15 07:26:51;;;;;;;1.63;0.80;;;9.90;99.90;;;;;;5115549;28;20194;-80
2023/11/15 07:29:19;;;;;;;1.25;1.15;;;9.90;99.90;;;;;;5116443;28;20200;-81
2023/11/15 07:31:51;;;;;;;3.85;1.50;;;9.90;99.90;;;;;;5115307;28;20224;-80
2023/11/15 07:34:19;;;;;;;0.68;0.68;;;9.90;99.90;;;;;;5115255;28;20230;-79
2023/11/15 07:36:46;;;;;;;3.33;0.90;;;9.90;99.90;;;;;;5115573;28;20213;-81
2023/11/15 07:39:13;;;;;;;1.40;1.30;;;9.90;99.90;;;;;;5116396;28;20200;-80
2023/11/15 07:41:40;;;;;;;0.50;0.40;;;9.90;99.90;;;;;;5116145;28;20228;-80
2023/11/15 07:44:07;;;;;;;1.77;1.67;;;9.90;99.90;;;;;;5116180;28;20212;-80
2023/11/15 07:46:34;;;;;;;1.13;1.03;;;10.00;99.90;;;;;;5116685;28;20850;-80
2023/11/15 07:49:01;;;;;;;0.50;0.50;;;10.00;99.90;;;;;;5117242;28;20517;-81
2023/11/15 07:51:29;;;;;;;2.43;1.00;;;9.90;99.90;;;;;;5116960;28;20451;-81
2023/11/15 07:53:56;;;;;;;2.58;2.13;;;10.00;99.90;;;;;;5108141;28;20427;-80
2023/11/15 07:56:23;;;;;;;6.80;1.23;;;10.00;99.90;;;;;;5117066;28;20204;-77
2023/11/15 07:58:50;;;;;;;0.40;0.40;;;10.00;99.90;;;;;;5120163;28;20449;-81
2023/11/15 08:01:17;;;;;;;0.60;0.60;;;10.00;99.90;;;;;;5120722;28;20470;-77
2023/11/15 08:03:44;;;;;;;2.80;1.67;;;10.10;99.90;;;;;;5121962;28;20445;-81
2023/11/15 08:06:10;;;;;;;2.25;2.05;;;10.10;99.90;;;;;;5121744;28;20462;-81
2023/11/15 08:08:39;;;;;;;1.87;1.50;;;10.10;99.90;;;;;;5121128;28;20207;-81
2023/11/15 08:11:06;;;;;;;1.30;0.60;;;10.00;99.90;;;;;;5121560;28;20479;-80
2023/11/15 08:13:32;;;;;;;17.07;2.13;;;10.10;99.90;;;;;;5121132;28;20197;-78
2023/11/15 08:15:59;;;;;;;3.20;2.97;;;10.10;99.90;;;;;;5122299;28;21009;-80
2023/11/15 08:18:26;;;;;;;11.37;3.23;;;10.10;99.90;;;;;;5122298;28;20472;-77
2023/11/15 08:20:54;;;;;;;1.97;1.87;;;10.20;99.90;;;;;;5121831;28;20485;-80
2023/11/15 08:23:23;;;;;;;0.60;0.60;;;10.20;99.90;;;;;;5122087;28;20439;-81
2023/11/15 08:25:52;;;;;;;1.05;1.05;;;10.20;99.90;;;;;;5121393;28;20810;-80
2023/11/15 08:28:20;;;;;;;5.80;2.63;;;10.20;99.90;;;;;;5121892;28;20608;-79
2023/11/15 08:30:46;;;;;;;1.13;1.03;;;10.20;99.90;;;;;;5120270;28;20270;-81
2023/11/15 08:33:16;;;;;;;4.45;1.77;;;10.20;99.90;;;;;;5120659;28;20439;-79
2023/11/15 08:35:43;;;;;;;1.57;1.30;;;10.20;99.90;;;;;;5120426;28;20228;-80
2023/11/15 08:38:10;;;;;;;2.20;1.33;;;10.20;99.90;;;;;;5120293;28;20434;-80
2023/11/15 08:40:37;;;;;;;0.87;0.87;;;10.30;99.90;;;;;;5119934;28;20474;-80
2023/11/15 08:43:07;;;;;;;2.43;1.93;;;10.30;99.90;;;;;;5120609;28;20478;-80
2023/11/15 08:45:34;;;;;;;0.50;0.40;;;10.30;99.90;;;;;;5120728;28;20434;-80
2023/11/15 08:48:04;;;;;;;5.03;2.00;;;10.40;99.90;;;;;;5111452;28;20442;-80
2023/11/15 08:50:31;;;;;;;3.40;1.87;;;10.40;99.90;;;;;;5120212;28;20439;-79
2023/11/15 08:52:58;;;;;;;3.03;1.07;;;10.40;99.90;;;;;;5119364;28;20802;-80
2023/11/15 08:55:26;;;;;;;3.17;2.67;;;10.40;99.90;;;;;;5119667;28;20485;-79
2023/11/15 08:57:52;;;;;;;2.20;1.33;;;10.40;99.90;;;;;;5119617;28;20490;-80
2023/11/15 09:00:21;;;;;;;2.50;2.30;;;10.40;99.90;;;;;;5119677;28;21001;-81
2023/11/15 09:02:48;;;;;;;1.47;1.23;;;10.50;99.90;;;;;;5118229;28;20443;-80
2023/11/15 09:05:15;;;;;;;4.10;0.67;;;10.60;99.90;;;;;;5119649;28;20768;-80
2023/11/15 09:07:43;;;;;;;1.30;0.60;;;10.60;99.90;;;;;;5118519;28;20530;-80
2023/11/15 09:10:11;;;;;;;9.83;1.47;;;10.70;99.90;;;;;;5117807;28;20435;-79
2023/11/15 09:12:38;;;;;;;0.83;0.83;;;10.70;99.90;;;;;;5118422;28;20461;-78
2023/11/15 09:15:11;;;;;;;4.30;2.10;;;10.90;99.90;;;;;;5118552;28;20518;-79
2023/11/15 09:17:46;;;;;;;1.47;1.37;;;11.00;99.90;;;;;;5118861;28;20956;-78
2023/11/15 09:20:17;;;;;;;5.87;1.00;;;11.10;99.90;;;;;;5118764;28;20572;-79
2023/11/15 09:22:45;;;;;;;1.90;1.33;;;11.30;99.90;;;;;;5117351;28;20462;-79
2023/11/15 09:25:20;;;;;;;1.63;0.70;;;11.40;99.90;;;;;;5117830;28;20522;-80
2023/11/15 09:27:46;;;;;;;1.90;1.80;;;11.30;99.90;;;;;;5118116;28;20793;-81
2023/11/15 09:30:14;;;;;;;2.50;2.10;;;11.10;99.90;;;;;;5118575;28;21067;-80
2023/11/15 09:32:42;;;;;;;3.23;2.67;;;11.00;99.90;;;;;;5119056;28;20450;-80
2023/11/15 09:35:10;;;;;;;0.80;0.80;;;10.80;99.90;;;;;;5119408;28;20439;-81
2023/11/15 09:37:38;;;;;;;15.30;3.37;;;10.60;99.90;;;;;;5119696;28;20447;-81
2023/11/15 09:40:11;;;;;;;0.83;0.83;;;10.50;99.90;;;;;;5110262;28;20467;-81
2023/11/15 09:42:42;;;;;;;0.40;0.40;;;10.30;99.90;;;;;;5118394;28;20662;-82
2023/11/15 09:45:16;;;;;;;0.50;0.40;;;10.30;99.90;;;;;;5109857;28;21002;-81
2023/11/15 09:47:47;;;;;;;2.87;1.13;;;10.30;99.90;;;;;;5117408;28;20602;-81
2023/11/15 09:50:17;;;;;;;0.50;0.40;;;10.30;99.90;;;;;;5117109;28;20914;-81
2023/11/15 09:52:47;;;;;;;1.27;1.17;;;10.30;99.90;;;;;;5116752;28;20817;-81
2023/11/15 09:55:14;;;;;;;0.60;0.60;;;10.30;99.90;;;;;;5116467;28;20503;-81
2023/11/15 09:57:41;;;;;;;0.50;0.30;;;10.30;99.90;;;;;;5116364;28;20439;-81
2023/11/15 10:00:11;;;;;;;0.80;0.80;;;10.40;99.90;;;;;;5108194;28;20849;-80
2023/11/15 10:02:37;;;;;;;4.00;0.70;;;10.40;99.90;;;;;;5116516;28;20807;-82
2023/11/15 10:05:20;;;;;;;2.77;1.53;;;10.50;99.90;;;;;;5115675;28;20437;-80
2023/11/15 10:07:48;;;;;;;0.82;0.82;;;10.50;99.90;;;;;;5115378;28;20987;-81
2023/11/15 10:10:19;;;;;;;1.77;1.67;;;10.60;99.90;;;;;;5116170;28;20197;-81
2023/11/15 10:12:50;;;;;;;1.90;1.80;;;10.70;99.90;;;;;;5115631;28;20435;-80
2023/11/15 10:15:18;;;;;;;1.17;0.80;;;10.70;99.90;;;;;;5116176;28;20821;-80
2023/11/15 10:17:46;;;;;;;9.10;4.80;;;10.80;99.90;;;;;;5116141;28;20439;-80
2023/11/15 10:20:20;;;;;;;0.50;0.40;;;10.80;99.90;;;;;;5115834;28;20838;-80
2023/11/15 10:22:47;;;;;;;0.57;0.57;;;11.00;99.90;;;;;;5115607;28;20864;-81
2023/11/15 10:25:15;;;;;;;0.50;0.40;;;11.00;99.90;;;;;;5116651;28;20439;-80
2023/11/15 10:27:41;;;;;;;0.50;0.50;;;11.00;99.90;;;;;;5115801;28;20443;-81
2023/11/15 10:30:13;;;;;;;1.80;1.13;;;11.10;99.90;;;;;;5116497;28;20433;-81
2023/11/15 10:32:40;;;;;;;1.40;1.30;;;11.10;99.90;;;;;;5116539;28;20855;-79
2023/11/15 10:35:08;;;;;;;1.73;1.40;;;11.20;99.90;;;;;;5116524;28;20471;-81
2023/11/15 10:37:47;;;;;;;0.97;0.80;;;11.20;99.90;;;;;;5117700;28;20438;-81
2023/11/15 10:40:14;;;;;;;4.43;1.40;;;11.20;99.90;;;;;;5110250;28;20466;-78
2023/11/15 10:42:49;;;;;;;28.57;2.70;;;11.20;99.90;;;;;;5124335;27;21075;-81
2023/11/15 10:45:17;;;;;;;0.57;0.57;;;11.20;99.90;;;;;;5127446;27;20440;-82
2023/11/15 10:47:54;;;;;;;0.53;0.50;;;11.20;99.90;;;;;;5127083;28;20445;-82
2023/11/15 10:50:22;;;;;;;0.80;0.80;;;11.20;99.90;;;;;;5116128;28;20437;-81
2023/11/15 10:52:50;;;;;;;3.57;1.10;;;11.20;99.90;;;;;;5103769;28;20806;-81
2023/11/15 10:55:18;;;;;;;6.67;2.10;;;11.20;99.90;;;;;;5101844;28;20446;-81
2023/11/15 10:57:47;;;;;;;2.93;2.40;;;11.30;99.90;;;;;;5104012;28;20484;-81
2023/11/15 11:00:20;;;;;;;7.50;2.37;;;11.20;99.90;;;;;;5097291;28;20493;-81
2023/11/15 11:02:49;;;;;;;4.87;1.10;;;11.20;99.90;;;;;;5104568;28;20491;-80
2023/11/15 11:05:25;;;;;;;0.50;0.40;;;11.20;99.90;;;;;;5108539;28;20436;-82
2023/11/15 11:07:58;;;;;;;0.50;0.50;;;11.20;99.90;;;;;;5107688;28;20449;-82
2023/11/15 11:10:32;;;;;;;3.20;2.13;;;11.20;99.90;;;;;;5110301;28;20435;-82
2023/11/15 11:12:59;;;;;;;1.27;1.27;;;11.20;99.90;;;;;;5107113;28;20518;-82
2023/11/15 11:15:30;;;;;;;1.03;1.00;;;11.30;99.90;;;;;;5105299;28;20443;-80
2023/11/15 11:18:04;;;;;;;0.83;0.83;;;11.30;99.90;;;;;;5105434;28;21026;-82
2023/11/15 11:20:34;;;;;;;0.50;0.40;;;11.20;99.90;;;;;;5108791;28;20445;-82
2023/11/15 11:23:10;;;;;;;0.50;0.40;;;11.20;99.90;;;;;;5107008;28;20522;-82
2023/11/15 11:25:39;;;;;;;3.77;2.73;;;11.40;99.90;;;;;;5105396;28;20455;-81
2023/11/15 11:28:06;;;;;;;2.47;2.07;;;11.50;99.90;;;;;;5107498;28;20447;-82
2023/11/15 11:30:35;;;;;;;0.70;0.60;;;11.50;99.90;;;;;;5109047;28;21069;-81
2023/11/15 11:33:10;;;;;;;2.30;1.40;;;11.70;99.90;;;;;;5107058;28;20941;-82
2023/11/15 11:35:40;;;;;;;0.50;0.40;;;11.80;99.90;;;;;;5105308;28;20446;-81
2023/11/15 11:38:11;;;;;;;0.50;0.40;;;11.80;99.90;;;;;;5107026;28;20447;-82
2023/11/15 11:40:40;;;;;;;0.50;0.40;;;11.80;99.90;;;;;;5107242;28;20463;-82
2023/11/15 11:43:22;;;;;;;0.50;0.50;;;11.90;99.90;;;;;;5106098;28;20472;-82
2023/11/15 11:45:53;;;;;;;0.90;0.90;;;11.90;99.90;;;;;;5104750;28;20470;-81
2023/11/15 11:48:25;;;;;;;0.50;0.40;;;11.90;99.90;;;;;;5096749;28;20468;-80
2023/11/15 11:51:00;;;;;;;0.50;0.50;;;12.00;99.90;;;;;;5109277;28;20478;-77
2023/11/15 11:53:27;;;;;;;1.03;1.03;;;12.00;99.90;;;;;;5093256;28;20436;-83
2023/11/15 11:55:56;;;;;;;3.90;1.27;;;12.00;99.90;;;;;;5090358;28;20440;-81
2023/11/15 11:58:26;;;;;;;6.00;1.27;;;12.00;99.90;;;;;;5092888;28;20488;-81
2023/11/15 12:01:01;;;;;;;3.30;0.90;;;11.90;99.90;;;;;;5093301;28;20578;-79
2023/11/15 12:03:30;;;;;;;1.37;0.70;;;12.00;99.90;;;;;;5086664;28;20819;-80
2023/11/15 12:06:07;;;;;;;8.90;1.03;;;12.00;99.90;;;;;;5088945;28;20502;-82
2023/11/15 12:08:34;;;;;;;0.83;0.83;;;12.00;99.90;;;;;;5091821;28;20446;-81
2023/11/15 12:11:01;;;;;;;1.53;0.60;;;12.00;99.90;;;;;;5090583;28;20455;-81
2023/11/15 12:13:42;;;;;;;1.60;1.50;;;11.90;99.90;;;;;;5088170;28;20448;-83
2023/11/15 12:16:17;;;;;;;1.33;1.20;;;11.80;99.90;;;;;;5089665;28;20441;-81
2023/11/15 12:18:55;;;;;;;0.67;0.67;;;11.90;99.90;;;;;;5090338;28;20435;-83
2023/11/15 12:21:22;;;;;;;0.50;0.40;;;11.80;99.90;;;;;;5078483;28;20483;-81
2023/11/15 12:23:50;;;;;;;0.50;0.50;;;12.00;99.90;;;;;;5086300;28;20437;-81
2023/11/15 12:26:16;;;;;;;0.50;0.50;;;12.00;99.90;;;;;;5085731;28;20464;-83
2023/11/15 12:28:43;;;;;;;1.33;0.97;;;12.10;99.90;;;;;;5084630;28;20455;-82
2023/11/15 12:31:10;;;;;;;0.50;0.40;;;12.10;99.90;;;;;;5086750;28;20479;-81
2023/11/15 12:33:39;;;;;;;0.50;0.40;;;12.00;99.90;;;;;;5087605;28;20439;-81
2023/11/15 12:36:07;;;;;;;0.50;0.40;;;11.90;99.90;;;;;;5086050;28;20518;-81
2023/11/15 12:38:34;;;;;;;0.50;0.30;;;12.10;99.90;;;;;;5083475;28;20935;-79
2023/11/15 12:41:05;;;;;;;0.60;0.60;;;12.10;99.90;;;;;;5082724;28;20468;-79
2023/11/15 12:43:32;;;;;;;2.10;0.70;;;12.10;99.90;;;;;;5087488;28;20527;-81
2023/11/15 12:46:00;;;;;;;0.50;0.43;;;12.10;99.90;;;;;;5086608;28;20444;-81
2023/11/15 12:48:27;;;;;;;2.20;1.10;;;12.20;99.90;;;;;;5083546;28;20445;-81
2023/11/15 12:51:02;;;;;;;0.60;0.50;;;12.50;99.90;;;;;;5083420;28;20456;-81
2023/11/15 12:53:30;;;;;;;2.60;2.10;;;12.80;99.90;;;;;;5076515;28;20428;-81